createdAt,value
2023-04-28T10:52:34.735Z,95017.22
2023-04-28T10:55:32.624Z,95016.84
2023-04-28T10:58:20.425Z,95004.19
2023-04-28T11:00:48.018Z,95025.50
2023-04-28T11:04:07.107Z,95023.91
2023-04-28T11:06:40.042Z,95028.75
2023-04-28T11:09:12.233Z,95037.16
2023-04-28T11:11:40.087Z,95026.41
2023-04-28T11:14:18.400Z,95014.53
2023-04-28T11:17:07.068Z,95019.28
2023-04-28T11:19:34.790Z,95020.53
2023-04-28T11:22:03.519Z,95025.44
2023-04-28T11:24:31.510Z,95020.97
2023-04-28T11:27:00.170Z,95014.25
2023-04-28T11:29:38.073Z,95026.47
2023-04-28T11:32:06.724Z,95023.63
2023-04-28T11:34:34.425Z,95026.31
2023-04-28T11:37:01.306Z,95019.97
2023-04-28T11:39:32.908Z,95017.84
2023-04-28T11:42:02.221Z,95015.34
2023-04-28T11:44:30.718Z,95024.41
2023-04-28T11:47:03.059Z,95019.19
2023-04-28T11:49:33.532Z,95016.25
2023-04-28T11:52:08.513Z,95020.19
2023-04-28T11:54:35.564Z,95016.31
2023-04-28T11:57:05.319Z,95008.19
2023-04-28T11:59:33.887Z,95017.94
2023-04-28T12:02:10.718Z,95017.75
2023-04-28T12:04:45.759Z,95021.00
2023-04-28T12:07:17.217Z,95024.88
2023-04-28T12:09:49.408Z,95032.44
2023-04-28T12:12:40.165Z,95025.50
2023-04-28T12:15:17.039Z,95022.63
2023-04-28T12:17:45.601Z,95015.09
2023-04-28T12:20:33.030Z,95027.72
2023-04-28T12:22:59.575Z,95031.59
2023-04-28T12:25:26.758Z,95027.94
2023-04-28T12:28:08.318Z,95032.81
2023-04-28T12:30:42.491Z,95036.47
2023-04-28T12:33:29.799Z,95043.22
2023-04-28T12:35:58.017Z,95039.34
2023-04-28T12:38:25.382Z,95036.25
2023-04-28T12:40:53.085Z,95045.69
2023-04-28T12:43:21.070Z,95052.38
2023-04-28T12:45:54.111Z,95049.34
2023-04-28T12:48:23.641Z,95053.84
2023-04-28T12:50:50.356Z,95054.44
2023-04-28T12:53:16.876Z,95050.56
2023-04-28T12:55:43.680Z,95057.09
2023-04-28T12:58:10.229Z,95049.56
2023-04-28T13:00:36.764Z,95052.81
2023-04-28T13:03:03.562Z,95047.69
2023-04-28T13:05:31.584Z,95052.19
2023-04-28T13:07:58.131Z,95046.81
2023-04-28T13:10:25.129Z,95052.81
2023-04-28T13:12:52.179Z,95046.03
2023-04-28T13:15:19.207Z,95042.28
2023-04-28T13:17:46.446Z,95039.19
2023-04-28T13:20:13.100Z,95027.38
2023-04-28T13:22:39.945Z,95024.13
2023-04-28T13:25:06.962Z,95028.38
2023-04-28T13:27:33.608Z,95016.16
2023-04-28T13:30:00.587Z,95029.03
2023-04-28T13:32:28.065Z,95028.09
2023-04-28T13:34:54.788Z,95023.63
2023-04-28T13:37:21.406Z,95017.53
2023-04-28T13:39:47.922Z,95014.31
2023-04-28T13:42:16.088Z,95019.13
2023-04-28T13:44:42.798Z,95014.09
2023-04-28T13:47:11.074Z,95013.47
2023-04-28T13:49:39.563Z,95013.53
2023-04-28T13:52:06.265Z,95015.00
2023-04-28T13:54:32.967Z,95009.28
2023-04-28T13:56:59.546Z,95004.19
2023-04-28T13:59:26.445Z,95007.88
2023-04-28T14:01:53.062Z,95011.41
2023-04-28T14:04:19.868Z,95005.69
2023-04-28T14:06:46.610Z,95007.09
2023-04-28T14:09:13.609Z,95001.50
2023-04-28T14:11:40.381Z,95005.94
2023-04-28T14:14:07.054Z,94998.94
2023-04-28T14:16:33.705Z,94996.63
2023-04-28T14:19:00.451Z,94993.66
2023-04-28T14:21:31.161Z,95000.91
2023-04-28T14:23:57.989Z,94994.25
2023-04-28T14:26:25.570Z,94993.63
2023-04-28T14:28:52.395Z,94995.44
2023-04-28T14:31:19.711Z,94992.91
2023-04-28T14:33:46.602Z,94988.81
2023-04-28T14:36:13.147Z,94991.56
2023-04-28T14:38:40.429Z,94983.00
2023-04-28T14:41:11.529Z,94987.34
2023-04-28T14:43:38.144Z,94977.19
2023-04-28T14:46:05.746Z,94986.69
2023-04-28T14:48:33.118Z,94976.56
2023-04-28T14:50:59.710Z,94980.78
2023-04-28T14:53:26.371Z,94978.50
2023-04-28T14:56:17.217Z,94985.81
2023-04-28T14:58:45.185Z,94983.16
2023-04-28T15:01:11.773Z,94972.63
2023-04-28T15:03:39.449Z,94977.56
2023-04-28T15:06:10.302Z,94979.06
2023-04-28T15:08:36.981Z,94981.97
2023-04-28T15:11:03.553Z,94988.00
2023-04-28T15:13:30.364Z,94980.69
2023-04-28T15:15:56.949Z,94977.31
2023-04-28T15:18:23.849Z,94975.13
2023-04-28T15:20:51.445Z,94978.84
2023-04-28T15:23:19.924Z,94981.72
2023-04-28T15:25:47.780Z,94980.53
2023-04-28T15:28:14.325Z,94984.06
2023-04-28T15:30:41.194Z,94986.34
2023-04-28T15:33:09.331Z,94981.03
2023-04-28T15:35:37.523Z,94974.31
2023-04-28T15:38:04.128Z,94974.13
2023-04-28T15:40:36.551Z,94975.13
2023-04-28T15:43:03.369Z,94980.09
2023-04-28T15:45:30.004Z,94983.28
2023-04-28T15:47:56.634Z,94978.56
2023-04-28T15:50:24.083Z,94985.53
2023-04-28T15:52:51.156Z,94979.44
2023-04-28T15:55:19.705Z,94977.41
2023-04-28T15:57:46.896Z,94977.03
2023-04-28T16:00:15.459Z,94978.00
2023-04-28T16:02:43.573Z,94973.91
2023-04-28T16:05:21.035Z,94967.84
2023-04-28T16:07:50.121Z,94972.50
2023-04-28T16:10:23.237Z,94964.78
2023-04-28T16:12:58.313Z,94951.81
2023-04-28T16:15:27.936Z,94945.09
2023-04-28T16:17:56.846Z,94951.03
2023-04-28T16:20:23.540Z,94949.97
2023-04-28T16:22:50.078Z,94943.47
2023-04-28T16:25:17.177Z,94943.63
2023-04-28T16:27:43.761Z,94945.44
2023-04-28T16:30:10.657Z,94947.50
2023-04-28T16:32:38.257Z,94944.50
2023-04-28T16:35:06.367Z,94941.66
2023-04-28T16:37:42.032Z,94949.78
2023-04-28T16:40:18.869Z,94953.69
2023-04-28T16:42:55.670Z,94948.78
2023-04-28T16:45:28.578Z,94941.66
